Time;durP1;ratioP1;P1;durP2;ratioP2;P2;SDS_P1;SDS_P2;PMS_P1;PMS_P2;Temp;Humidity;BMP_temperature;BMP_pressure;BME280_temperature;BME280_humidity;BME280_pressure;Samples;Min_cycle;Max_cycle;Signal;HPM_P1;HPM_P2
2023/09/23 00:00:14;;;;;;;1.70;0.93;;;12.00;99.90;;;;;;5077624;28;20493;-65
2023/09/23 00:02:42;;;;;;;5.03;0.90;;;12.00;99.90;;;;;;5060039;28;20474;-65
2023/09/23 00:05:12;;;;;;;2.53;0.90;;;12.00;99.90;;;;;;5077087;28;20478;-65
2023/09/23 00:07:40;;;;;;;2.10;0.83;;;11.80;99.90;;;;;;5084471;28;20514;-66
2023/09/23 00:10:08;;;;;;;2.63;1.20;;;11.90;99.90;;;;;;5081060;28;21031;-65
2023/09/23 00:12:38;;;;;;;5.67;1.13;;;11.80;99.90;;;;;;5079797;28;20561;-65
2023/09/23 00:15:06;;;;;;;6.13;1.27;;;11.80;99.90;;;;;;5081475;28;20516;-65
2023/09/23 00:17:32;;;;;;;1.70;0.70;;;11.80;99.90;;;;;;5080844;28;20973;-65
2023/09/23 00:20:01;;;;;;;4.23;1.00;;;11.90;99.90;;;;;;5057239;28;20474;-65
2023/09/23 00:22:28;;;;;;;3.13;1.20;;;11.90;99.90;;;;;;5085001;28;20481;-65
2023/09/23 00:24:55;;;;;;;5.00;1.00;;;11.90;99.90;;;;;;5082817;28;21006;-65
2023/09/23 00:27:24;;;;;;;1.90;1.10;;;;;;;;;;5083492;28;20588;-65
2023/09/23 00:29:52;;;;;;;1.90;0.97;;;11.80;99.90;;;;;;5078165;28;20489;-65
2023/09/23 00:32:21;;;;;;;5.67;1.00;;;11.80;99.90;;;;;;5063401;28;20556;-66
2023/09/23 00:34:48;;;;;;;3.70;1.17;;;11.70;99.90;;;;;;5062435;28;20531;-65
2023/09/23 00:37:15;;;;;;;1.70;0.80;;;11.70;99.90;;;;;;5081556;28;20462;-65
2023/09/23 00:39:42;;;;;;;1.53;0.70;;;11.60;99.90;;;;;;5085907;28;20481;-65
2023/09/23 00:42:12;;;;;;;9.53;1.10;;;11.60;99.90;;;;;;5084522;28;20484;-65
2023/09/23 00:44:40;;;;;;;2.57;0.90;;;11.60;99.90;;;;;;5079606;28;20473;-65
2023/09/23 00:47:09;;;;;;;1.97;1.00;;;11.60;99.90;;;;;;5082515;28;20519;-65
2023/09/23 00:49:37;;;;;;;2.10;0.80;;;11.60;99.90;;;;;;5080259;28;20745;-65
2023/09/23 00:52:06;;;;;;;8.30;1.47;;;11.50;99.90;;;;;;5081878;28;20790;-65
2023/09/23 00:54:35;;;;;;;7.20;1.23;;;11.50;99.90;;;;;;5082751;28;20555;-65
2023/09/23 00:57:03;;;;;;;2.20;1.33;;;11.60;99.90;;;;;;5082178;28;20470;-65
2023/09/23 00:59:30;;;;;;;2.90;0.90;;;11.50;99.90;;;;;;5083416;28;20999;-65
2023/09/23 01:01:57;;;;;;;7.80;1.70;;;11.60;99.90;;;;;;5082292;28;20473;-65
2023/09/23 01:04:25;;;;;;;2.37;1.57;;;11.50;99.90;;;;;;5077954;28;21018;-65
2023/09/23 01:06:52;;;;;;;1.93;0.93;;;11.50;99.90;;;;;;5081914;28;20473;-65
2023/09/23 01:09:20;;;;;;;11.20;1.63;;;11.60;99.90;;;;;;5085123;28;21113;-65
2023/09/23 01:11:49;;;;;;;1.90;0.90;;;11.50;99.90;;;;;;5083553;28;20965;-65
2023/09/23 01:14:21;;;;;;;2.00;1.17;;;11.60;99.90;;;;;;5053154;28;20473;-65
2023/09/23 01:16:49;;;;;;;1.60;0.73;;;11.50;99.90;;;;;;5071214;28;20573;-65
2023/09/23 01:19:18;;;;;;;2.00;1.30;;;11.50;99.90;;;;;;5052560;28;20497;-65
2023/09/23 01:21:48;;;;;;;17.83;2.63;;;11.40;99.90;;;;;;5073252;28;21269;-65
2023/09/23 01:24:17;;;;;;;3.83;1.73;;;11.40;99.90;;;;;;5082779;28;21056;-65
2023/09/23 01:26:45;;;;;;;3.87;1.07;;;11.30;99.90;;;;;;5085492;28;20497;-65
2023/09/23 01:29:12;;;;;;;9.03;1.67;;;11.30;99.90;;;;;;5079123;28;20986;-65
2023/09/23 01:31:39;;;;;;;5.47;1.40;;;;;;;;;;5083196;28;20814;-65
2023/09/23 01:34:07;;;;;;;2.37;1.10;;;11.30;99.90;;;;;;5070558;28;20504;-65
2023/09/23 01:36:37;;;;;;;1.90;1.40;;;11.30;99.90;;;;;;5084463;28;20606;-65
2023/09/23 01:39:07;;;;;;;2.13;1.13;;;11.30;99.90;;;;;;5081517;28;20469;-64
2023/09/23 01:41:36;;;;;;;2.17;1.20;;;;;;;;;;5084247;28;20890;-64
2023/09/23 01:44:04;;;;;;;12.53;1.40;;;11.30;99.90;;;;;;5081353;28;20473;-65
2023/09/23 01:46:33;;;;;;;2.00;1.07;;;11.30;99.90;;;;;;5059085;28;20577;-64
2023/09/23 01:49:00;;;;;;;1.80;1.00;;;11.20;99.90;;;;;;5080407;28;20830;-65
2023/09/23 01:51:27;;;;;;;2.40;1.17;;;11.20;99.90;;;;;;5080720;28;20565;-64
2023/09/23 01:53:55;;;;;;;3.20;1.63;;;11.10;99.90;;;;;;5080807;28;20466;-65
2023/09/23 01:56:22;;;;;;;4.20;1.30;;;11.10;99.90;;;;;;5082341;28;20624;-65
2023/09/23 01:58:51;;;;;;;1.90;1.40;;;11.10;99.90;;;;;;5066068;28;20871;-65
2023/09/23 02:01:17;;;;;;;1.70;0.83;;;11.10;99.90;;;;;;5053183;28;20468;-65
2023/09/23 02:03:45;;;;;;;2.30;1.17;;;;;;;;;;5080583;28;20509;-65
2023/09/23 02:06:12;;;;;;;4.00;1.20;;;11.00;99.90;;;;;;5053470;28;20582;-65
2023/09/23 02:08:39;;;;;;;8.30;1.73;;;11.00;99.90;;;;;;5054009;28;20554;-65
2023/09/23 02:11:05;;;;;;;8.70;1.40;;;11.00;99.90;;;;;;5079886;28;20489;-65
2023/09/23 02:13:36;;;;;;;4.53;1.43;;;11.00;99.90;;;;;;5079905;28;20485;-65
2023/09/23 02:16:05;;;;;;;1.83;1.53;;;11.00;99.90;;;;;;5078660;28;20470;-66
2023/09/23 02:18:35;;;;;;;1.60;0.90;;;11.00;99.90;;;;;;5068717;28;20538;-66
2023/09/23 02:21:01;;;;;;;2.13;1.10;;;11.00;99.90;;;;;;5078380;28;20901;-65
2023/09/23 02:23:28;;;;;;;2.20;1.30;;;10.90;99.90;;;;;;5079687;28;20474;-65
2023/09/23 02:25:55;;;;;;;1.80;1.17;;;10.90;99.90;;;;;;5069272;28;20533;-66
2023/09/23 02:28:21;;;;;;;1.60;0.87;;;10.90;99.90;;;;;;5079803;28;20835;-66
2023/09/23 02:30:48;;;;;;;4.43;1.33;;;10.80;99.90;;;;;;5067356;28;20937;-66
2023/09/23 02:33:17;;;;;;;2.00;1.57;;;10.80;99.90;;;;;;5078115;28;20470;-66
2023/09/23 02:35:43;;;;;;;2.30;1.03;;;10.70;99.90;;;;;;5077871;28;20866;-66
2023/09/23 02:38:10;;;;;;;5.20;1.27;;;10.60;99.90;;;;;;5076482;28;20474;-66
2023/09/23 02:40:40;;;;;;;6.80;1.37;;;10.70;99.90;;;;;;5077095;28;21032;-65
2023/09/23 02:43:07;;;;;;;1.90;1.07;;;10.70;99.90;;;;;;5077993;28;20473;-65
2023/09/23 02:45:34;;;;;;;1.70;0.90;;;10.70;99.90;;;;;;5095385;28;20485;-65
2023/09/23 02:48:01;;;;;;;10.50;2.10;;;10.70;99.90;;;;;;5095405;28;20495;-65
2023/09/23 02:50:29;;;;;;;2.20;1.37;;;10.80;99.90;;;;;;5098833;28;20485;-65
2023/09/23 02:52:56;;;;;;;1.70;0.90;;;10.80;99.90;;;;;;5097858;28;20473;-65
2023/09/23 02:55:23;;;;;;;1.90;1.10;;;10.80;99.90;;;;;;5098475;28;20489;-65
2023/09/23 02:57:52;;;;;;;6.43;1.13;;;10.60;99.90;;;;;;5096944;28;21047;-65
2023/09/23 03:00:22;;;;;;;2.90;1.07;;;10.50;99.90;;;;;;5098304;28;20473;-65
2023/09/23 03:02:54;;;;;;;15.80;1.80;;;10.30;99.90;;;;;;5094879;28;20596;-66
2023/09/23 03:05:26;;;;;;;4.03;1.23;;;;;;;;;;5098213;28;20927;-66
2023/09/23 03:07:57;;;;;;;11.80;2.03;;;10.30;99.90;;;;;;5065828;28;20993;-65
2023/09/23 03:10:31;;;;;;;2.30;1.13;;;10.40;99.90;;;;;;5095154;28;20477;-66
2023/09/23 03:13:06;;;;;;;1.70;1.00;;;10.50;99.90;;;;;;5094841;28;20468;-65
2023/09/23 03:15:41;;;;;;;2.50;1.23;;;10.40;99.90;;;;;;5097597;28;20485;-66
2023/09/23 03:18:09;;;;;;;2.10;0.87;;;10.40;99.90;;;;;;5096200;28;20818;-66
2023/09/23 03:20:36;;;;;;;2.40;1.37;;;10.50;99.90;;;;;;5094486;28;20473;-66
2023/09/23 03:23:09;;;;;;;5.07;1.50;;;10.40;99.90;;;;;;5096420;28;20461;-65
2023/09/23 03:25:42;;;;;;;24.63;2.43;;;10.40;99.90;;;;;;5095408;28;20534;-65
2023/09/23 03:28:09;;;;;;;2.97;1.60;;;10.30;99.90;;;;;;5097161;28;20611;-65
2023/09/23 03:30:36;;;;;;;2.50;1.10;;;10.40;99.90;;;;;;5095414;28;20856;-65
2023/09/23 03:33:04;;;;;;;5.27;1.30;;;10.30;99.90;;;;;;5096898;28;20473;-65
2023/09/23 03:35:35;;;;;;;2.53;1.00;;;10.30;99.90;;;;;;5096322;28;20959;-65
2023/09/23 03:38:02;;;;;;;2.00;1.03;;;10.30;99.90;;;;;;5076977;28;20913;-65
2023/09/23 03:40:31;;;;;;;1.70;1.00;;;10.30;99.90;;;;;;5074000;28;20478;-64
2023/09/23 03:43:01;;;;;;;2.27;1.10;;;10.20;99.90;;;;;;5092908;28;20510;-64
2023/09/23 03:45:27;;;;;;;1.60;0.80;;;10.20;99.90;;;;;;5095481;28;20481;-64
2023/09/23 03:47:54;;;;;;;1.70;0.90;;;10.20;99.90;;;;;;5092108;28;20472;-65
2023/09/23 03:50:21;;;;;;;2.90;1.13;;;10.20;99.90;;;;;;5096281;28;20862;-65
2023/09/23 03:52:50;;;;;;;2.20;0.90;;;10.20;99.90;;;;;;5096703;28;20911;-65
2023/09/23 03:55:18;;;;;;;6.33;1.40;;;10.20;99.90;;;;;;5095765;28;20917;-64
2023/09/23 03:57:46;;;;;;;1.70;1.10;;;10.30;99.90;;;;;;5097520;28;20481;-64
2023/09/23 04:00:16;;;;;;;10.50;1.53;;;10.30;99.90;;;;;;5093821;28;20556;-64
2023/09/23 04:02:44;;;;;;;2.20;1.30;;;10.30;99.90;;;;;;5080665;28;20473;-64
2023/09/23 04:05:11;;;;;;;2.00;1.17;;;10.30;99.90;;;;;;5097420;28;20473;-64
2023/09/23 04:07:40;;;;;;;3.53;1.50;;;;;;;;;;5096793;28;20535;-65
2023/09/23 04:10:09;;;;;;;3.93;1.10;;;10.30;99.90;;;;;;5096991;28;20530;-64
2023/09/23 04:12:36;;;;;;;1.80;1.10;;;10.30;99.90;;;;;;5098126;28;20485;-64
2023/09/23 04:15:07;;;;;;;3.87;1.43;;;10.20;99.90;;;;;;5077586;28;20490;-64
2023/09/23 04:17:34;;;;;;;1.77;0.93;;;10.10;99.90;;;;;;5089741;28;20469;-64
2023/09/23 04:20:10;;;;;;;1.73;1.07;;;10.10;99.90;;;;;;5096501;28;20487;-65
2023/09/23 04:22:38;;;;;;;2.33;1.13;;;10.20;99.90;;;;;;5097317;28;20499;-64
2023/09/23 04:25:06;;;;;;;2.90;1.50;;;10.20;99.90;;;;;;5097267;28;20488;-64
2023/09/23 04:27:34;;;;;;;28.67;2.60;;;;;;;;;;5098171;28;20507;-64
2023/09/23 04:30:01;;;;;;;2.77;1.57;;;10.20;99.90;;;;;;5075713;28;20482;-65
2023/09/23 04:32:29;;;;;;;1.70;0.90;;;10.20;99.90;;;;;;5092189;28;20473;-64
2023/09/23 04:34:57;;;;;;;1.80;0.90;;;10.20;99.90;;;;;;5096467;28;20461;-66
2023/09/23 04:37:26;;;;;;;1.70;0.90;;;10.20;99.90;;;;;;5097125;28;21245;-66
2023/09/23 04:39:53;;;;;;;2.00;1.27;;;10.20;99.90;;;;;;5095297;28;20975;-66
2023/09/23 04:42:21;;;;;;;4.23;0.97;;;10.20;99.90;;;;;;5096125;28;20472;-66
2023/09/23 04:44:47;;;;;;;2.10;1.47;;;10.20;99.90;;;;;;5094573;28;20480;-66
2023/09/23 04:47:17;;;;;;;3.70;1.33;;;10.10;99.90;;;;;;5094826;28;20500;-66
2023/09/23 04:49:45;;;;;;;6.33;1.33;;;10.10;99.90;;;;;;5094682;28;20542;-66
2023/09/23 04:52:13;;;;;;;2.00;1.13;;;10.00;99.90;;;;;;5097019;28;20473;-66
2023/09/23 04:54:40;;;;;;;1.70;0.87;;;10.00;99.90;;;;;;5099785;28;20481;-66
2023/09/23 04:57:08;;;;;;;5.40;1.63;;;9.90;99.90;;;;;;5098238;28;20488;-65
2023/09/23 04:59:34;;;;;;;2.63;1.30;;;9.80;99.90;;;;;;5090156;28;20473;-65
2023/09/23 05:02:01;;;;;;;17.50;2.37;;;9.80;99.90;;;;;;5058105;28;20473;-65
2023/09/23 05:04:28;;;;;;;1.80;1.00;;;9.80;99.90;;;;;;5067932;28;20982;-66
2023/09/23 05:06:57;;;;;;;10.20;1.40;;;9.80;99.90;;;;;;5097405;28;20609;-66
2023/09/23 05:09:25;;;;;;;3.60;1.60;;;9.90;99.90;;;;;;5095455;28;20993;-65
2023/09/23 05:11:52;;;;;;;1.70;1.10;;;10.00;99.90;;;;;;5099157;28;21553;-66
2023/09/23 05:14:19;;;;;;;1.77;1.23;;;10.00;99.90;;;;;;5100423;28;20477;-65
2023/09/23 05:16:46;;;;;;;11.40;1.63;;;10.00;99.90;;;;;;5098889;28;20489;-66
2023/09/23 05:19:12;;;;;;;2.47;1.07;;;10.10;99.90;;;;;;5099994;28;20588;-65
2023/09/23 05:21:39;;;;;;;3.20;1.30;;;10.10;99.90;;;;;;5099984;28;20477;-65
2023/09/23 05:24:09;;;;;;;7.93;1.20;;;10.10;99.90;;;;;;5098833;28;20740;-66
2023/09/23 05:26:37;;;;;;;2.37;1.33;;;10.10;99.90;;;;;;5098742;28;20473;-66
2023/09/23 05:29:04;;;;;;;3.37;1.20;;;10.20;99.90;;;;;;5095783;28;20469;-66
2023/09/23 05:31:30;;;;;;;1.80;0.90;;;10.30;99.90;;;;;;5100604;28;20862;-66
2023/09/23 05:33:57;;;;;;;2.30;1.03;;;10.30;99.90;;;;;;5097698;28;20469;-66
2023/09/23 05:36:25;;;;;;;11.27;1.47;;;10.40;99.90;;;;;;5099487;28;20912;-66
2023/09/23 05:38:52;;;;;;;3.97;1.80;;;10.50;99.90;;;;;;5094848;28;20495;-66
2023/09/23 05:41:24;;;;;;;2.10;1.00;;;10.70;99.90;;;;;;5099178;28;20492;-66
2023/09/23 05:43:51;;;;;;;7.60;1.43;;;10.90;99.90;;;;;;5098615;28;20524;-65
2023/09/23 05:46:19;;;;;;;1.60;1.00;;;;;;;;;;5067948;28;20493;-64
2023/09/23 05:48:47;;;;;;;2.00;1.30;;;11.00;99.90;;;;;;5088822;28;20558;-65
2023/09/23 05:51:15;;;;;;;3.17;1.93;;;11.10;99.90;;;;;;5093617;28;20835;-64
2023/09/23 05:53:42;;;;;;;1.80;0.90;;;11.00;99.90;;;;;;5098600;28;20489;-64
2023/09/23 05:56:09;;;;;;;1.80;1.03;;;11.10;99.90;;;;;;5098371;28;21026;-65
2023/09/23 05:58:37;;;;;;;2.80;1.83;;;11.30;99.90;;;;;;5099466;28;20477;-64
2023/09/23 06:01:04;;;;;;;4.73;1.30;;;11.30;99.90;;;;;;5099208;28;21136;-65
2023/09/23 06:03:30;;;;;;;2.83;1.03;;;11.20;99.90;;;;;;5098934;28;20473;-65
2023/09/23 06:05:57;;;;;;;1.67;1.10;;;11.00;99.90;;;;;;5097993;28;20477;-65
2023/09/23 06:08:25;;;;;;;2.70;1.13;;;11.00;99.90;;;;;;5098055;28;21425;-65
2023/09/23 06:10:52;;;;;;;20.50;2.30;;;10.90;99.90;;;;;;5099085;28;21058;-65
2023/09/23 06:13:19;;;;;;;1.80;0.90;;;10.90;99.90;;;;;;5071084;28;20481;-65
2023/09/23 06:15:47;;;;;;;2.30;1.20;;;10.90;99.90;;;;;;5093638;28;20987;-65
2023/09/23 06:18:14;;;;;;;1.90;1.23;;;10.90;99.90;;;;;;5098661;28;20469;-65
2023/09/23 06:20:41;;;;;;;1.53;0.77;;;11.00;99.90;;;;;;5099236;28;20473;-65
2023/09/23 06:23:07;;;;;;;3.20;1.30;;;11.10;99.90;;;;;;5097776;28;20469;-65
2023/09/23 06:25:34;;;;;;;5.60;1.57;;;11.20;99.90;;;;;;5078459;28;20478;-65
2023/09/23 06:28:01;;;;;;;9.43;1.23;;;11.20;99.90;;;;;;5098062;28;20481;-65
2023/09/23 06:30:28;;;;;;;1.77;1.27;;;11.40;99.90;;;;;;5099060;28;21007;-65
2023/09/23 06:32:56;;;;;;;10.93;2.03;;;12.50;99.90;;;;;;5097321;28;20489;-65
2023/09/23 06:35:22;;;;;;;5.50;1.33;;;13.50;99.90;;;;;;5098401;28;20477;-65
2023/09/23 06:37:49;;;;;;;3.10;1.37;;;13.90;99.90;;;;;;5097975;28;20516;-65
2023/09/23 06:40:16;;;;;;;2.63;1.60;;;;;;;;;;5096844;28;20477;-65
2023/09/23 06:42:46;;;;;;;5.97;1.30;;;16.00;98.80;;;;;;5098827;28;20801;-65
2023/09/23 06:45:13;;;;;;;22.50;3.13;;;;;;;;;;5086796;28;20966;-65
2023/09/23 06:47:40;;;;;;;4.17;1.90;;;16.80;96.70;;;;;;5096626;28;20473;-65
2023/09/23 06:50:10;;;;;;;5.63;1.80;;;16.80;96.30;;;;;;5094463;28;20471;-65
2023/09/23 06:52:36;;;;;;;18.10;2.60;;;17.20;96.30;;;;;;5098953;28;21125;-65
2023/09/23 06:55:04;;;;;;;8.00;1.43;;;17.40;95.70;;;;;;5087389;28;20866;-66
2023/09/23 06:57:30;;;;;;;2.00;1.40;;;17.90;95.40;;;;;;5072113;28;20845;-65
2023/09/23 06:59:57;;;;;;;5.13;1.53;;;18.10;94.50;;;;;;5095802;28;20829;-65
2023/09/23 07:02:25;;;;;;;1.77;0.93;;;18.30;94.20;;;;;;5097484;28;21007;-65
2023/09/23 07:04:51;;;;;;;1.70;1.00;;;18.40;94.00;;;;;;5097834;28;20485;-65
2023/09/23 07:07:19;;;;;;;3.00;1.00;;;18.90;93.80;;;;;;5096848;28;20517;-65
2023/09/23 07:09:46;;;;;;;7.53;1.40;;;18.80;93.30;;;;;;5097092;28;20878;-66
2023/09/23 07:12:13;;;;;;;3.70;1.27;;;18.90;93.70;;;;;;5097946;28;20469;-65
2023/09/23 07:14:40;;;;;;;3.93;0.97;;;19.40;94.30;;;;;;5096262;28;20481;-65
2023/09/23 07:17:07;;;;;;;1.80;1.00;;;19.80;93.40;;;;;;5096078;28;20478;-66
2023/09/23 07:19:34;;;;;;;7.53;1.53;;;19.80;93.10;;;;;;5066785;28;20470;-65
2023/09/23 07:22:01;;;;;;;3.10;1.10;;;20.00;92.90;;;;;;5093578;28;20872;-65
2023/09/23 07:24:32;;;;;;;10.50;1.87;;;19.50;92.00;;;;;;5098368;28;21142;-65
2023/09/23 07:27:00;;;;;;;4.30;1.27;;;19.00;92.40;;;;;;5094754;28;20994;-65
2023/09/23 07:29:26;;;;;;;1.60;0.70;;;18.30;93.50;;;;;;5093373;28;20473;-65
2023/09/23 07:31:54;;;;;;;2.40;1.10;;;18.00;93.80;;;;;;5096892;28;20481;-64
2023/09/23 07:34:21;;;;;;;8.13;1.00;;;17.70;94.50;;;;;;5077873;28;20482;-65
2023/09/23 07:36:48;;;;;;;1.70;0.90;;;17.50;95.20;;;;;;5088408;28;20481;-65
2023/09/23 07:39:16;;;;;;;1.90;0.80;;;17.10;95.40;;;;;;5087474;28;20457;-65
2023/09/23 07:41:44;;;;;;;4.70;1.27;;;17.00;95.70;;;;;;5097847;28;20514;-65
2023/09/23 07:44:11;;;;;;;2.70;0.87;;;17.10;95.60;;;;;;5091508;28;20971;-64
2023/09/23 07:46:38;;;;;;;1.70;0.90;;;17.30;95.90;;;;;;5089982;28;20850;-66
2023/09/23 07:49:06;;;;;;;4.70;1.10;;;17.30;96.20;;;;;;5094922;28;20503;-65
2023/09/23 07:51:33;;;;;;;1.60;0.70;;;17.40;95.60;;;;;;5097182;28;21419;-65
2023/09/23 07:54:00;;;;;;;6.53;1.90;;;17.20;95.90;;;;;;5095001;28;20495;-65
2023/09/23 07:56:27;;;;;;;1.80;1.37;;;17.00;96.00;;;;;;5097503;28;21232;-66
2023/09/23 07:58:55;;;;;;;13.60;1.93;;;16.80;95.80;;;;;;5095362;28;20484;-67
2023/09/23 08:01:21;;;;;;;4.27;1.50;;;16.50;96.70;;;;;;5096598;28;20504;-68
2023/09/23 08:03:48;;;;;;;1.70;1.00;;;16.40;96.60;;;;;;5097330;28;21041;-67
2023/09/23 08:06:15;;;;;;;2.67;1.37;;;16.20;96.90;;;;;;5096602;28;20483;-67
2023/09/23 08:08:42;;;;;;;3.53;1.03;;;16.10;97.10;;;;;;5097804;28;20469;-68
2023/09/23 08:11:08;;;;;;;3.43;1.13;;;16.20;97.20;;;;;;5096860;28;20481;-68
2023/09/23 08:13:35;;;;;;;1.70;0.80;;;16.20;97.30;;;;;;5095997;28;20469;-67
2023/09/23 08:16:04;;;;;;;8.70;1.80;;;16.20;97.60;;;;;;5093052;28;20925;-67
2023/09/23 08:18:30;;;;;;;1.93;1.00;;;16.30;97.70;;;;;;5097057;28;20461;-67
2023/09/23 08:20:57;;;;;;;3.03;1.10;;;16.20;98.00;;;;;;5097242;28;20479;-67
2023/09/23 08:23:25;;;;;;;5.20;1.30;;;16.00;97.80;;;;;;5093767;28;20674;-67
2023/09/23 08:25:52;;;;;;;3.60;1.40;;;16.20;98.30;;;;;;5064180;28;20561;-66
2023/09/23 08:28:18;;;;;;;3.03;1.40;;;16.50;98.00;;;;;;5094080;28;20492;-66
2023/09/23 08:30:46;;;;;;;3.43;0.97;;;16.60;98.40;;;;;;5100993;28;20971;-66
2023/09/23 08:33:14;;;;;;;9.13;1.97;;;16.70;97.50;;;;;;5100540;28;20481;-66
2023/09/23 08:35:42;;;;;;;4.10;0.90;;;16.90;97.50;;;;;;5101556;28;20492;-66
2023/09/23 08:38:09;;;;;;;2.00;1.10;;;17.00;97.30;;;;;;5100894;28;20469;-66
2023/09/23 08:40:38;;;;;;;2.43;1.13;;;17.10;97.00;;;;;;5100579;28;20483;-66
2023/09/23 08:43:06;;;;;;;8.90;1.87;;;17.30;96.80;;;;;;5097509;28;20485;-66
2023/09/23 08:45:33;;;;;;;2.80;1.13;;;17.50;97.40;;;;;;5101245;28;20469;-66
2023/09/23 08:48:02;;;;;;;1.83;0.93;;;17.50;96.10;;;;;;5097979;28;20485;-67
2023/09/23 08:50:31;;;;;;;8.03;1.30;;;17.50;97.10;;;;;;5096871;28;20481;-67
2023/09/23 08:53:00;;;;;;;6.93;1.43;;;17.60;97.30;;;;;;5099022;28;20555;-67
2023/09/23 08:55:28;;;;;;;2.23;1.40;;;17.60;97.00;;;;;;5101052;28;20476;-66
2023/09/23 08:57:55;;;;;;;2.17;0.97;;;17.50;97.70;;;;;;5099369;28;21190;-67
2023/09/23 09:00:23;;;;;;;1.90;0.90;;;17.70;97.20;;;;;;5100631;28;20481;-67
2023/09/23 09:02:50;;;;;;;6.53;1.63;;;17.90;96.70;;;;;;5099331;28;20473;-67
2023/09/23 09:05:16;;;;;;;2.10;1.30;;;18.00;96.20;;;;;;5082048;28;20481;-66
2023/09/23 09:07:45;;;;;;;1.93;0.90;;;18.10;96.20;;;;;;5099574;28;21188;-66
2023/09/23 09:10:13;;;;;;;1.70;0.80;;;18.00;96.40;;;;;;5099693;28;20461;-67
2023/09/23 09:12:40;;;;;;;2.87;1.13;;;18.00;96.30;;;;;;5071248;28;20527;-66
2023/09/23 09:15:09;;;;;;;4.53;0.93;;;17.80;96.10;;;;;;5094895;28;20493;-66
2023/09/23 09:17:35;;;;;;;4.83;1.10;;;18.00;95.40;;;;;;5098046;28;21169;-66
2023/09/23 09:20:06;;;;;;;1.70;0.80;;;18.00;95.30;;;;;;5094540;28;20477;-66
2023/09/23 09:22:34;;;;;;;2.00;1.10;;;18.00;96.10;;;;;;5100914;28;20513;-66
2023/09/23 09:25:03;;;;;;;4.50;1.20;;;17.70;96.40;;;;;;5063270;28;20474;-67
2023/09/23 09:27:30;;;;;;;2.53;1.00;;;17.70;97.00;;;;;;5090200;28;20496;-66
2023/09/23 09:29:57;;;;;;;1.73;0.90;;;17.70;96.20;;;;;;5097224;28;20481;-66
2023/09/23 09:32:30;;;;;;;1.80;1.00;;;17.80;96.70;;;;;;5099542;28;20496;-67
2023/09/23 09:35:00;;;;;;;6.50;1.40;;;17.70;96.10;;;;;;5094873;28;20473;-67
2023/09/23 09:37:28;;;;;;;6.33;1.07;;;;;;;;;;5096495;28;20893;-67
2023/09/23 09:39:57;;;;;;;3.93;1.00;;;18.00;96.90;;;;;;5098420;28;20473;-66
2023/09/23 09:42:28;;;;;;;6.53;1.40;;;18.10;95.70;;;;;;5067344;28;20482;-65
2023/09/23 09:44:57;;;;;;;2.00;1.10;;;18.30;95.80;;;;;;5098635;28;21107;-66
2023/09/23 09:47:24;;;;;;;5.20;1.00;;;18.40;95.20;;;;;;5098456;28;20476;-66
2023/09/23 09:49:52;;;;;;;3.33;1.00;;;18.50;96.50;;;;;;5072773;28;20476;-67
2023/09/23 09:52:22;;;;;;;3.20;1.40;;;18.50;95.60;;;;;;5093533;28;20485;-68
2023/09/23 09:54:52;;;;;;;2.77;1.70;;;18.30;95.80;;;;;;5098103;28;20473;-67
2023/09/23 09:57:20;;;;;;;2.23;1.00;;;18.40;96.70;;;;;;5075166;28;20484;-67
2023/09/23 09:59:50;;;;;;;1.70;0.83;;;18.60;95.90;;;;;;5098822;28;20848;-66
2023/09/23 10:02:17;;;;;;;2.23;1.17;;;18.80;96.30;;;;;;5099277;28;20496;-68
2023/09/23 10:04:47;;;;;;;4.23;1.37;;;18.60;96.00;;;;;;5099120;28;20496;-68
2023/09/23 10:07:14;;;;;;;4.43;1.20;;;18.60;94.00;;;;;;5067984;28;20473;-66
2023/09/23 10:09:53;;;;;;;3.33;1.10;;;18.70;94.60;;;;;;5098436;28;20846;-66
2023/09/23 10:12:25;;;;;;;4.90;0.93;;;18.60;94.60;;;;;;5087855;28;20509;-66
2023/09/23 10:14:56;;;;;;;2.00;0.90;;;18.40;94.80;;;;;;5094255;28;20592;-66
2023/09/23 10:17:31;;;;;;;2.60;0.90;;;18.40;95.00;;;;;;5098477;28;20871;-66
2023/09/23 10:19:58;;;;;;;4.27;1.93;;;18.60;94.70;;;;;;5098272;28;20488;-67
2023/09/23 10:22:29;;;;;;;1.70;0.90;;;18.60;94.90;;;;;;5094594;28;20485;-66
2023/09/23 10:25:03;;;;;;;1.70;0.87;;;18.60;93.80;;;;;;5095605;28;20470;-65
2023/09/23 10:27:30;;;;;;;2.30;1.00;;;18.60;93.90;;;;;;5086577;28;20567;-65
2023/09/23 10:29:58;;;;;;;1.80;0.90;;;18.60;94.10;;;;;;5097197;28;20480;-64
2023/09/23 10:32:26;;;;;;;16.33;1.77;;;18.50;94.30;;;;;;5097344;28;20481;-64
2023/09/23 10:34:55;;;;;;;2.63;1.40;;;18.40;94.60;;;;;;5098297;28;20469;-65
2023/09/23 10:37:26;;;;;;;3.17;1.30;;;18.30;95.00;;;;;;5099389;28;20484;-66
2023/09/23 10:39:53;;;;;;;3.60;1.20;;;18.20;94.50;;;;;;5095256;28;20473;-65
2023/09/23 10:42:19;;;;;;;2.50;1.20;;;18.20;94.70;;;;;;5098045;28;20846;-66
2023/09/23 10:44:47;;;;;;;1.70;0.80;;;18.20;94.70;;;;;;5094101;28;20903;-66
2023/09/23 10:47:16;;;;;;;1.73;0.90;;;18.40;94.80;;;;;;5098524;28;20469;-66
2023/09/23 10:49:43;;;;;;;1.70;0.93;;;18.60;94.20;;;;;;5098207;28;21911;-66
2023/09/23 10:52:11;;;;;;;1.70;0.90;;;18.60;94.60;;;;;;5097374;28;20497;-67
2023/09/23 10:54:40;;;;;;;1.80;0.80;;;18.80;94.50;;;;;;5098950;28;20856;-66
2023/09/23 10:57:06;;;;;;;2.47;1.10;;;18.90;95.30;;;;;;5096814;28;20549;-67
2023/09/23 10:59:33;;;;;;;3.93;1.10;;;18.70;94.60;;;;;;5099175;28;20853;-67
2023/09/23 11:02:00;;;;;;;4.80;1.30;;;18.70;94.20;;;;;;5083821;28;20990;-67
2023/09/23 11:04:29;;;;;;;3.73;1.27;;;18.70;94.30;;;;;;5094727;28;20469;-67
2023/09/23 11:06:56;;;;;;;3.33;1.00;;;18.60;94.40;;;;;;5097603;28;20469;-66
2023/09/23 11:09:25;;;;;;;2.10;1.20;;;18.50;93.70;;;;;;5097153;28;20473;-68
2023/09/23 11:11:52;;;;;;;2.93;1.40;;;18.40;94.30;;;;;;5096908;28;20472;-67
2023/09/23 11:14:20;;;;;;;7.10;1.57;;;18.40;94.10;;;;;;5096769;28;20477;-67
2023/09/23 11:16:48;;;;;;;7.10;1.40;;;18.50;94.70;;;;;;5098252;28;20469;-66
2023/09/23 11:19:17;;;;;;;4.70;1.30;;;18.50;95.00;;;;;;5097197;28;20963;-67
2023/09/23 11:21:46;;;;;;;1.83;0.97;;;18.50;94.90;;;;;;5097899;28;20469;-66
2023/09/23 11:24:13;;;;;;;1.93;1.30;;;18.90;96.80;;;;;;5096102;28;20515;-67
2023/09/23 11:26:40;;;;;;;3.80;1.27;;;18.90;95.50;;;;;;5097851;28;21244;-68
2023/09/23 11:29:07;;;;;;;1.60;0.80;;;18.90;93.90;;;;;;5095575;28;21026;-67
2023/09/23 11:31:34;;;;;;;1.70;0.60;;;18.70;94.10;;;;;;5098266;28;20508;-67
2023/09/23 11:34:01;;;;;;;5.07;1.70;;;18.40;94.30;;;;;;5096601;28;20481;-67
2023/09/23 11:36:28;;;;;;;2.93;1.30;;;18.30;93.80;;;;;;5097888;28;20489;-66
2023/09/23 11:38:57;;;;;;;1.70;0.80;;;18.20;93.90;;;;;;5095435;28;21417;-67
2023/09/23 11:41:24;;;;;;;9.57;2.00;;;18.30;93.80;;;;;;5092077;28;20484;-67
2023/09/23 11:43:51;;;;;;;6.07;1.73;;;18.10;94.30;;;;;;5096341;28;20469;-67
2023/09/23 11:46:19;;;;;;;1.80;1.00;;;18.00;94.00;;;;;;5097346;28;20852;-67
2023/09/23 11:48:48;;;;;;;5.03;1.37;;;18.00;94.90;;;;;;5089237;28;20473;-67
2023/09/23 11:51:15;;;;;;;9.10;1.57;;;18.00;95.50;;;;;;5091989;28;21344;-67
2023/09/23 11:53:42;;;;;;;11.67;1.57;;;17.90;95.60;;;;;;5097854;28;20481;-67
2023/09/23 11:56:11;;;;;;;2.53;0.97;;;17.80;95.20;;;;;;5071937;28;20863;-66
2023/09/23 11:58:38;;;;;;;2.63;1.43;;;17.90;95.30;;;;;;5094402;28;20476;-67
2023/09/23 12:01:06;;;;;;;3.13;1.43;;;17.90;95.30;;;;;;5098218;28;21005;-67
2023/09/23 12:03:33;;;;;;;2.83;1.30;;;17.80;94.90;;;;;;5098928;28;20473;-67
2023/09/23 12:06:00;;;;;;;1.70;0.90;;;17.90;94.90;;;;;;5098471;28;21208;-67
2023/09/23 12:08:27;;;;;;;2.47;1.10;;;17.80;94.60;;;;;;5099794;28;20555;-67
2023/09/23 12:10:54;;;;;;;7.13;1.30;;;18.10;94.40;;;;;;5098148;28;20469;-66
2023/09/23 12:13:24;;;;;;;6.60;1.50;;;18.00;94.30;;;;;;5101001;28;20469;-67
2023/09/23 12:15:52;;;;;;;5.77;1.27;;;18.20;94.70;;;;;;5093659;28;20481;-67
2023/09/23 12:18:19;;;;;;;4.23;0.97;;;18.20;95.10;;;;;;5101214;28;20477;-68
2023/09/23 12:20:46;;;;;;;2.10;0.90;;;18.30;94.40;;;;;;5101451;28;20532;-67
2023/09/23 12:23:15;;;;;;;4.63;1.10;;;18.40;94.50;;;;;;5099476;28;21213;-66
2023/09/23 12:25:43;;;;;;;5.03;1.30;;;18.30;94.80;;;;;;5101224;28;20530;-67
2023/09/23 12:28:09;;;;;;;3.60;0.93;;;18.40;94.50;;;;;;5093128;28;20564;-68
2023/09/23 12:30:37;;;;;;;2.20;1.07;;;18.40;93.80;;;;;;5097027;28;20795;-68
2023/09/23 12:33:05;;;;;;;1.80;0.80;;;18.30;93.80;;;;;;5090768;28;20484;-68
2023/09/23 12:35:33;;;;;;;1.70;0.83;;;18.30;93.60;;;;;;5082148;28;20485;-69
2023/09/23 12:38:00;;;;;;;2.37;1.03;;;;;;;;;;5081157;28;20481;-66
2023/09/23 12:40:27;;;;;;;4.33;1.00;;;18.50;94.20;;;;;;5079391;28;20478;-67
2023/09/23 12:42:54;;;;;;;4.50;1.20;;;;;;;;;;5081573;28;20999;-66
2023/09/23 12:45:22;;;;;;;5.40;1.40;;;18.80;94.00;;;;;;5077857;28;20559;-65
2023/09/23 12:47:50;;;;;;;1.80;0.93;;;19.20;94.80;;;;;;5079456;28;20509;-67
2023/09/23 12:50:17;;;;;;;8.77;1.37;;;19.40;94.00;;;;;;5080951;28;21003;-64
2023/09/23 12:52:44;;;;;;;6.00;1.00;;;19.40;93.10;;;;;;5078200;28;20821;-66